Time;durP1;ratioP1;P1;durP2;ratioP2;P2;SDS_P1;SDS_P2;PMS_P1;PMS_P2;Temp;Humidity;BMP_temperature;BMP_pressure;BME280_temperature;BME280_humidity;BME280_pressure;Samples;Min_cycle;Max_cycle;Signal;HPM_P1;HPM_P2
2022/05/05 00:02:57;;;;;;;19.40;14.82;;;;;;;;;;10347107;28;20057;-77
2022/05/05 00:07:58;;;;;;;17.02;13.90;;;;;;;;;;10357148;28;20513;-76
2022/05/05 00:18:19;;;;;;;16.35;12.95;;;;;;;;;;10365940;28;20046;-76
2022/05/05 00:23:19;;;;;;;14.25;12.05;;;;;;;;;;10365481;28;20046;-77
2022/05/05 00:28:21;;;;;;;16.80;12.87;;;;;;;;;;10350326;28;20115;-77
2022/05/05 00:33:21;;;;;;;16.02;12.15;;;;;;;;;;10338656;28;20311;-77
2022/05/05 00:38:21;;;;;;;14.40;12.27;;;;;;;;;;10363069;28;20046;-77
2022/05/05 00:43:23;;;;;;;13.97;11.57;;;;;;;;;;10333047;28;20300;-76
2022/05/05 00:48:26;;;;;;;15.48;12.82;;;;;;;;;;10342963;28;20265;-76
2022/05/05 00:53:27;;;;;;;13.40;10.83;;;;;;;;;;10367781;28;20041;-75
2022/05/05 00:58:28;;;;;;;16.88;13.00;;;;;;;;;;10358431;28;20631;-76
2022/05/05 01:03:38;;;;;;;16.00;13.52;;;;;;;;;;10356009;28;20468;-75
2022/05/05 01:08:39;;;;;;;15.77;13.07;;;;;;;;;;10366942;28;20092;-77
2022/05/05 01:13:40;;;;;;;15.98;12.85;;;;;;;;;;10345355;28;20100;-75
2022/05/05 01:18:40;;;;;;;16.20;12.70;;;;;;;;;;10365906;28;20092;-76
2022/05/05 01:23:41;;;;;;;17.00;13.80;;;;;;;;;;10352606;28;20057;-77
2022/05/05 01:28:44;;;;;;;15.70;11.80;;;;;;;;;;10351155;28;20191;-76
2022/05/05 01:33:45;;;;;;;15.27;12.82;;;;;;;;;;10351912;28;20353;-76
2022/05/05 01:38:45;;;;;;;16.73;13.23;;;;;;;;;;10360227;28;20049;-76
2022/05/05 01:43:45;;;;;;;17.57;14.10;;;;;;;;;;10374086;28;20050;-78
2022/05/05 01:48:46;;;;;;;18.08;13.63;;;;;;;;;;10350365;28;20050;-77
2022/05/05 01:53:46;;;;;;;18.97;14.43;;;;;;;;;;10357740;28;20046;-76
2022/05/05 01:58:47;;;;;;;23.10;16.48;;;;;;;;;;10349073;28;20285;-76
2022/05/05 02:03:47;;;;;;;32.28;19.77;;;;;;;;;;10358896;28;20148;-76
2022/05/05 02:08:48;;;;;;;32.70;20.30;;;;;;;;;;10362019;28;20050;-76
2022/05/05 02:13:49;;;;;;;30.05;19.05;;;;;;;;;;10342977;28;20050;-76
2022/05/05 02:18:50;;;;;;;40.75;23.75;;;;;;;;;;10370114;28;20034;-76
2022/05/05 02:23:50;;;;;;;30.50;19.27;;;;;;;;;;10361541;28;20116;-76
2022/05/05 02:28:50;;;;;;;32.50;19.63;;;;;;;;;;10368519;28;20288;-77
2022/05/05 02:33:51;;;;;;;34.27;19.23;;;;;;;;;;10351555;28;20046;-75
2022/05/05 02:38:52;;;;;;;30.40;18.40;;;;;;;;;;10374168;28;20300;-78
2022/05/05 02:43:53;;;;;;;31.33;19.17;;;;;;;;;;10394290;28;20050;-78
2022/05/05 02:48:54;;;;;;;34.93;21.13;;;;;;;;;;10410544;28;20289;-78
2022/05/05 02:59:13;;;;;;;31.67;19.73;;;;;;;;;;10380462;28;20470;-78
2022/05/05 03:04:14;;;;;;;33.88;21.33;;;;;;;;;;10351190;28;20089;-76
2022/05/05 03:09:14;;;;;;;30.47;18.43;;;;;;;;;;10367192;28;20072;-78
2022/05/05 03:14:15;;;;;;;27.38;17.08;;;;;;;;;;10362139;28;20046;-77
2022/05/05 03:19:15;;;;;;;26.47;17.03;;;;;;;;;;10350166;28;20070;-77
2022/05/05 03:24:17;;;;;;;22.20;15.47;;;;;;;;;;10366157;28;20371;-78
2022/05/05 03:29:17;;;;;;;21.98;14.95;;;;;;;;;;10347826;28;20291;-77
2022/05/05 03:34:19;;;;;;;20.43;13.60;;;;;;;;;;10364465;28;20125;-77
2022/05/05 03:39:20;;;;;;;24.75;15.90;;;;;;;;;;10363711;28;20309;-78
2022/05/05 03:44:20;;;;;;;27.30;17.77;;;;;;;;;;10370272;28;20494;-77
2022/05/05 03:49:20;;;;;;;28.33;19.00;;;;;;;;;;10365709;28;20133;-78
2022/05/05 03:54:21;;;;;;;28.43;17.13;;;;;;;;;;10347121;28;20049;-78
2022/05/05 03:59:25;;;;;;;32.17;17.98;;;;;;;;;;10366459;28;20265;-77
2022/05/05 04:04:25;;;;;;;;;;;;;;;;;;10366343;28;20085;-77
2022/05/05 04:09:26;;;;;;;33.45;20.38;;;;;;;;;;10363976;28;19918;-77
2022/05/05 04:14:27;;;;;;;35.40;20.53;;;;;;;;;;10363469;28;20049;-78
2022/05/05 04:19:28;;;;;;;31.65;18.35;;;;;;;;;;10363032;28;20358;-76
2022/05/05 04:24:28;;;;;;;35.77;21.67;;;;;;;;;;10338251;28;20053;-75
2022/05/05 04:29:29;;;;;;;38.97;22.63;;;;;;;;;;10363790;28;20042;-75
2022/05/05 04:34:29;;;;;;;43.38;24.98;;;;;;;;;;10365764;28;20078;-74
2022/05/05 04:39:29;;;;;;;31.70;18.55;;;;;;;;;;10368963;28;20069;-74
2022/05/05 04:44:30;;;;;;;47.05;25.20;;;;;;;;;;10367104;28;20056;-75
2022/05/05 04:49:31;;;;;;;47.38;24.48;;;;;;;;;;10350028;28;20060;-75
2022/05/05 04:54:31;;;;;;;43.42;21.63;;;;;;;;;;10342150;28;20085;-74
2022/05/05 04:59:32;;;;;;;46.33;25.77;;;;;;;;;;10365061;28;20081;-74
2022/05/05 05:04:32;;;;;;;47.42;24.85;;;;;;;;;;10356203;28;20050;-75
2022/05/05 05:09:34;;;;;;;46.93;24.60;;;;;;;;;;10374509;28;20050;-75
2022/05/05 05:14:35;;;;;;;49.15;25.70;;;;;;;;;;10371335;28;20825;-75
2022/05/05 05:19:36;;;;;;;39.28;22.05;;;;;;;;;;10372422;28;20057;-76
2022/05/05 05:24:37;;;;;;;45.50;24.00;;;;;;;;;;10365054;28;20050;-74
2022/05/05 05:29:37;;;;;;;47.92;26.30;;;;;;;;;;10369604;28;20050;-75
2022/05/05 05:34:38;;;;;;;49.13;25.23;;;;;;;;;;10370992;28;20041;-75
2022/05/05 05:39:38;;;;;;;40.03;22.58;;;;;;;;;;10356603;28;20301;-75
2022/05/05 05:44:38;;;;;;;43.47;25.23;;;;;;;;;;10352558;28;20046;-75
2022/05/05 05:49:39;;;;;;;44.60;26.03;;;;;;;;;;10361073;28;20113;-74
2022/05/05 05:54:39;;;;;;;39.33;24.02;;;;;;;;;;10399119;28;20352;-75
2022/05/05 05:59:40;;;;;;;41.03;24.33;;;;;;;;;;10414953;28;20041;-76
2022/05/05 06:04:40;;;;;;;39.20;24.20;;;;;;;;;;10408073;28;20329;-76
2022/05/05 06:09:40;;;;;;;39.15;23.83;;;;;;;;;;10356460;28;20069;-76
2022/05/05 06:14:41;;;;;;;34.43;20.73;;;;;;;;;;10354204;28;20453;-76
2022/05/05 06:19:44;;;;;;;35.63;21.90;;;;;;;;;;10373043;28;20387;-75
2022/05/05 06:24:44;;;;;;;;;;;;;;;;;;10371226;28;20312;-75
2022/05/05 06:29:44;;;;;;;41.63;25.05;;;;;;;;;;10362079;28;19913;-75
2022/05/05 06:34:45;;;;;;;40.95;23.80;;;;;;;;;;10348034;28;20052;-76
2022/05/05 06:39:45;;;;;;;41.10;25.02;;;;;;;;;;10350069;28;20560;-76
2022/05/05 06:44:46;;;;;;;38.23;24.40;;;;;;;;;;10347377;28;20061;-75
2022/05/05 06:49:46;;;;;;;37.92;24.40;;;;;;;;;;10349261;28;20745;-74
2022/05/05 06:54:47;;;;;;;33.07;20.97;;;;;;;;;;10354895;28;20077;-75
2022/05/05 06:59:47;;;;;;;36.83;23.42;;;;;;;;;;10364036;28;20041;-76
2022/05/05 07:15:27;;;;;;;34.83;24.13;;;;;;;;;;10367621;28;20100;-75
2022/05/05 07:20:28;;;;;;;34.43;21.70;;;;;;;;;;10353170;28;20476;-75
2022/05/05 07:25:29;;;;;;;32.08;21.38;;;;;;;;;;10352673;28;20614;-75
2022/05/05 07:30:30;;;;;;;30.88;19.63;;;;;;;;;;10383887;28;20229;-74
2022/05/05 07:35:30;;;;;;;31.13;20.93;;;;;;;;;;10371950;28;20045;-77
2022/05/05 07:40:31;;;;;;;29.52;22.00;;;;;;;;;;10362616;28;20319;-75
2022/05/05 07:45:31;;;;;;;29.27;20.63;;;;;;;;;;10359878;28;20053;-75
2022/05/05 07:50:32;;;;;;;26.45;19.00;;;;;;;;;;10344296;28;20046;-75
2022/05/05 07:55:32;;;;;;;25.63;17.80;;;;;;;;;;10368325;28;20042;-74
2022/05/05 08:00:33;;;;;;;24.95;18.00;;;;;;;;;;10381334;28;20073;-75
2022/05/05 08:05:34;;;;;;;23.83;17.52;;;;;;;;;;10359740;28;20135;-75
2022/05/05 08:10:34;;;;;;;23.40;17.80;;;;;;;;;;10362989;28;20065;-75
2022/05/05 08:15:34;;;;;;;20.77;16.37;;;;;;;;;;10356575;28;20342;-75
2022/05/05 08:20:35;;;;;;;21.45;15.80;;;;;;;;;;10369544;28;20289;-75
2022/05/05 08:30:55;;;;;;;29.08;16.60;;;;;;;;;;10363854;28;20038;-75
2022/05/05 08:35:57;;;;;;;20.30;15.20;;;;;;;;;;10366188;28;20046;-74
2022/05/05 08:40:58;;;;;;;22.43;15.77;;;;;;;;;;10353089;28;20064;-75
2022/05/05 08:46:00;;;;;;;18.92;14.50;;;;;;;;;;10369590;28;20048;-74
2022/05/05 08:51:01;;;;;;;20.95;15.50;;;;;;;;;;10355001;28;20041;-77
2022/05/05 08:56:02;;;;;;;18.33;14.02;;;;;;;;;;10359804;28;20042;-75
2022/05/05 09:01:02;;;;;;;18.80;13.02;;;;;;;;;;10373005;28;20167;-76
2022/05/05 09:06:04;;;;;;;17.98;13.45;;;;;;;;;;10381684;28;20138;-77
2022/05/05 09:11:06;;;;;;;12.43;10.32;;;;;;;;;;10371217;28;20045;-76
2022/05/05 09:16:07;;;;;;;10.60;9.27;;;;;;;;;;10402042;28;20141;-75
2022/05/05 09:21:07;;;;;;;14.20;12.07;;;;;;;;;;10390923;28;20297;-76
2022/05/05 09:26:10;;;;;;;12.18;10.18;;;;;;;;;;10387385;28;20041;-74
2022/05/05 09:31:11;;;;;;;10.70;9.60;;;;;;;;;;10360733;28;20492;-76
2022/05/05 09:36:13;;;;;;;10.30;9.00;;;;;;;;;;10386552;28;20038;-76
2022/05/05 09:41:15;;;;;;;9.60;8.15;;;;;;;;;;10365129;28;20750;-76
2022/05/05 09:46:21;;;;;;;10.43;9.40;;;;;;;;;;10365960;28;20048;-76
2022/05/05 09:51:22;;;;;;;11.02;8.93;;;;;;;;;;10365229;28;20284;-75
2022/05/05 10:01:42;;;;;;;11.00;8.48;;;;;;;;;;10351361;28;20063;-75
2022/05/05 10:06:43;;;;;;;10.60;8.32;;;;;;;;;;10348532;28;20741;-77
2022/05/05 10:11:43;;;;;;;11.80;7.38;;;;;;;;;;10371762;28;20053;-75
2022/05/05 10:16:44;;;;;;;11.65;9.88;;;;;;;;;;10367996;28;20049;-74
2022/05/05 10:22:03;;;;;;;10.95;9.52;;;;;;;;;;10369252;28;20085;-75
2022/05/05 10:27:04;;;;;;;7.03;6.32;;;;;;;;;;10352816;28;20042;-76
2022/05/05 10:32:16;;;;;;;11.38;9.23;;;;;;;;;;10369362;28;20038;-75
2022/05/05 10:37:20;;;;;;;9.82;8.82;;;;;;;;;;10351230;28;20062;-75
2022/05/05 10:42:35;;;;;;;9.80;8.50;;;;;;;;;;10365279;28;20151;-74
2022/05/05 10:48:06;;;;;;;10.50;8.52;;;;;;;;;;10365997;28;20050;-75
2022/05/05 10:53:07;;;;;;;8.23;7.32;;;;;;;;;;10365316;28;20053;-75
2022/05/05 10:58:10;;;;;;;7.47;6.75;;;;;;;;;;10367188;28;20042;-74
2022/05/05 11:03:15;;;;;;;9.32;7.70;;;;;;;;;;10368098;28;20137;-76
2022/05/05 11:08:19;;;;;;;7.50;6.35;;;;;;;;;;10346774;28;20072;-75
2022/05/05 11:13:42;;;;;;;7.38;6.50;;;;;;;;;;10352118;28;20058;-74
2022/05/05 11:24:07;;;;;;;6.53;5.90;;;;;;;;;;10366997;28;20050;-73
2022/05/05 11:29:15;;;;;;;8.87;7.47;;;;;;;;;;10367305;28;20044;-75
2022/05/05 11:34:15;;;;;;;12.52;8.60;;;;;;;;;;10364601;28;20372;-75
2022/05/05 11:39:21;;;;;;;12.18;8.43;;;;;;;;;;10347814;28;20117;-81
2022/05/05 11:44:22;;;;;;;8.48;7.47;;;;;;;;;;10372575;28;20064;-75
2022/05/05 12:26:27;;;;;;;7.50;6.88;;;;;;;;;;10369854;28;20215;-77
2022/05/05 12:31:30;;;;;;;7.20;6.57;;;;;;;;;;10364580;28;20048;-76
2022/05/05 12:36:30;;;;;;;8.00;6.80;;;;;;;;;;10341825;28;20160;-75
2022/05/05 12:41:30;;;;;;;7.23;6.53;;;;;;;;;;10360071;28;20107;-75
2022/05/05 12:46:31;;;;;;;8.43;6.70;;;;;;;;;;10329369;28;20092;-77
2022/05/05 12:51:33;;;;;;;6.20;5.60;;;;;;;;;;10348455;28;20653;-76
2022/05/05 13:01:53;;;;;;;5.22;4.72;;;;;;;;;;10357781;28;19928;-76
2022/05/05 13:06:54;;;;;;;5.90;5.40;;;;;;;;;;10371108;28;20037;-76
2022/05/05 13:11:54;;;;;;;5.75;5.25;;;;;;;;;;10372506;28;20155;-76
2022/05/05 13:16:55;;;;;;;5.65;5.00;;;;;;;;;;10354814;28;20049;-75
2022/05/05 13:21:56;;;;;;;5.97;4.63;;;;;;;;;;10361849;28;20117;-75
2022/05/05 13:26:57;;;;;;;5.80;4.63;;;;;;;;;;10358986;28;20049;-75
2022/05/05 13:31:58;;;;;;;6.18;4.50;;;;;;;;;;10362156;28;20847;-76
2022/05/05 13:36:59;;;;;;;5.30;4.25;;;;;;;;;;10356284;28;20042;-76
2022/05/05 13:42:00;;;;;;;4.20;3.80;;;;;;;;;;10355454;28;20120;-75
2022/05/05 13:47:01;;;;;;;4.53;4.00;;;;;;;;;;10353204;28;20050;-76
2022/05/05 13:52:02;;;;;;;5.22;4.57;;;;;;;;;;10352562;28;20132;-75
2022/05/05 13:57:03;;;;;;;5.22;4.68;;;;;;;;;;10317235;28;20128;-78
2022/05/05 14:02:04;;;;;;;4.80;4.40;;;;;;;;;;10367274;28;20113;-77
2022/05/05 14:07:04;;;;;;;4.53;4.13;;;;;;;;;;10353622;28;20046;-76
2022/05/05 14:12:10;;;;;;;5.03;4.57;;;;;;;;;;10357417;28;20050;-75
2022/05/05 14:17:13;;;;;;;4.95;4.55;;;;;;;;;;10365988;28;20066;-76
2022/05/05 14:22:15;;;;;;;4.50;4.10;;;;;;;;;;10364604;28;20054;-77
2022/05/05 14:27:16;;;;;;;4.57;4.17;;;;;;;;;;10366997;28;20054;-76
2022/05/05 14:32:17;;;;;;;7.20;4.47;;;;;;;;;;10330457;28;20307;-76
2022/05/05 14:37:17;;;;;;;4.90;4.40;;;;;;;;;;10359436;28;20065;-75
2022/05/05 14:42:18;;;;;;;5.18;4.40;;;;;;;;;;10357044;28;20552;-76
2022/05/05 14:47:19;;;;;;;5.30;4.63;;;;;;;;;;10351853;28;20458;-75
2022/05/05 14:52:19;;;;;;;4.80;4.43;;;;;;;;;;10356240;28;20458;-76
2022/05/05 14:57:22;;;;;;;4.93;4.47;;;;;;;;;;10370293;28;20053;-76
2022/05/05 15:02:22;;;;;;;5.38;4.88;;;;;;;;;;10339915;28;20089;-74
2022/05/05 15:07:24;;;;;;;4.93;4.53;;;;;;;;;;10363534;28;20553;-76
2022/05/05 15:12:25;;;;;;;5.25;4.75;;;;;;;;;;10364152;28;20339;-77
2022/05/05 15:17:26;;;;;;;4.60;4.20;;;;;;;;;;10338292;28;20064;-76
2022/05/05 15:22:29;;;;;;;4.90;4.45;;;;;;;;;;10374643;28;20057;-76
2022/05/05 15:27:30;;;;;;;6.05;4.70;;;;;;;;;;10367298;28;20057;-75
2022/05/05 15:32:32;;;;;;;4.90;4.50;;;;;;;;;;10358189;28;20363;-78
2022/05/05 15:37:38;;;;;;;5.45;4.93;;;;;;;;;;10333960;28;20122;-76
2022/05/05 15:42:40;;;;;;;5.28;4.78;;;;;;;;;;10346808;28;20061;-76
2022/05/05 15:47:41;;;;;;;4.47;4.07;;;;;;;;;;10361677;28;20053;-74
2022/05/05 15:52:42;;;;;;;5.57;4.65;;;;;;;;;;10368472;28;20045;-76
2022/05/05 15:57:43;;;;;;;11.60;9.40;;;;;;;;;;10360022;28;20100;-76
2022/05/05 16:02:45;;;;;;;5.43;4.97;;;;;;;;;;10334641;28;20068;-76
2022/05/05 16:07:49;;;;;;;5.40;4.90;;;;;;;;;;10372369;28;20362;-75
2022/05/05 16:12:49;;;;;;;5.78;5.28;;;;;;;;;;10376424;28;20089;-76
2022/05/05 16:17:50;;;;;;;6.88;6.28;;;;;;;;;;10357003;28;20042;-76
2022/05/05 16:22:52;;;;;;;6.53;6.03;;;;;;;;;;10373034;28;20413;-77
2022/05/05 16:33:11;;;;;;;6.30;5.80;;;;;;;;;;10372174;28;20053;-79
2022/05/05 16:38:14;;;;;;;6.05;5.55;;;;;;;;;;10373903;28;20085;-76
2022/05/05 16:43:14;;;;;;;6.05;5.55;;;;;;;;;;10335974;28;20116;-77
2022/05/05 16:48:15;;;;;;;6.97;6.22;;;;;;;;;;10330031;28;20057;-76
2022/05/05 16:53:16;;;;;;;7.10;6.40;;;;;;;;;;10355998;28;20049;-75
2022/05/05 16:58:23;;;;;;;7.05;6.45;;;;;;;;;;10369676;28;20053;-77
2022/05/05 17:03:23;;;;;;;8.07;7.28;;;;;;;;;;10382176;28;20436;-78
2022/05/05 17:08:24;;;;;;;7.78;6.97;;;;;;;;;;10350321;28;20052;-78
2022/05/05 17:13:24;;;;;;;8.77;7.32;;;;;;;;;;10359036;28;20054;-75
2022/05/05 17:18:25;;;;;;;9.15;7.15;;;;;;;;;;10343768;28;20081;-77
2022/05/05 17:23:25;;;;;;;8.05;7.35;;;;;;;;;;10367733;28;20058;-77
2022/05/05 17:28:28;;;;;;;7.85;7.05;;;;;;;;;;10367490;28;20050;-76
2022/05/05 17:33:29;;;;;;;7.80;7.10;;;;;;;;;;10380048;28;20045;-76
2022/05/05 17:38:29;;;;;;;7.80;7.10;;;;;;;;;;10335533;28;20084;-77
2022/05/05 17:43:29;;;;;;;8.93;8.02;;;;;;;;;;10339882;28;20057;-75
2022/05/05 17:53:52;;;;;;;9.07;7.30;;;;;;;;;;10382866;28;20052;-74
2022/05/05 17:58:54;;;;;;;9.57;6.97;;;;;;;;;;10391139;28;20056;-77
2022/05/05 18:03:56;;;;;;;7.63;6.50;;;;;;;;;;10380097;28;20053;-78
2022/05/05 18:08:56;;;;;;;7.35;6.65;;;;;;;;;;10362800;28;20042;-75
2022/05/05 18:13:57;;;;;;;7.72;6.90;;;;;;;;;;10370276;28;20054;-77
2022/05/05 18:18:57;;;;;;;8.57;7.53;;;;;;;;;;10354897;28;20092;-76
2022/05/05 18:23:58;;;;;;;8.30;7.47;;;;;;;;;;10377767;28;20088;-77
2022/05/05 18:28:59;;;;;;;7.63;6.88;;;;;;;;;;10358954;28;20069;-78
2022/05/05 18:33:59;;;;;;;7.53;6.80;;;;;;;;;;10358383;28;20042;-76
2022/05/05 18:39:00;;;;;;;8.63;7.82;;;;;;;;;;10378230;28;20273;-76
2022/05/05 18:44:00;;;;;;;8.73;6.85;;;;;;;;;;10367310;28;20056;-77
2022/05/05 18:49:01;;;;;;;9.23;8.32;;;;;;;;;;10364916;28;20096;-76
2022/05/05 18:54:05;;;;;;;10.00;8.20;;;;;;;;;;10355690;28;20041;-75
2022/05/05 18:59:05;;;;;;;9.65;8.70;;;;;;;;;;10334511;28;20046;-76
2022/05/05 19:04:05;;;;;;;8.77;7.97;;;;;;;;;;10350384;28;20380;-75
2022/05/05 19:09:06;;;;;;;10.83;8.83;;;;;;;;;;10355853;28;20049;-76
2022/05/05 19:14:08;;;;;;;9.88;8.65;;;;;;;;;;10349569;28;20045;-76
2022/05/05 19:19:10;;;;;;;9.67;8.17;;;;;;;;;;10354781;28;20388;-76
2022/05/05 19:24:11;;;;;;;8.52;7.47;;;;;;;;;;10380483;28;20136;-77
2022/05/05 19:29:12;;;;;;;9.13;8.23;;;;;;;;;;10378674;28;20050;-78
2022/05/05 19:34:13;;;;;;;10.13;7.90;;;;;;;;;;10378274;28;21126;-75
2022/05/05 19:39:13;;;;;;;10.20;8.80;;;;;;;;;;10364635;28;20057;-76
2022/05/05 19:44:17;;;;;;;11.43;9.73;;;;;;;;;;10363520;28;20061;-77
2022/05/05 19:49:40;;;;;;;11.60;9.43;;;;;;;;;;10373519;28;20289;-77
2022/05/05 19:54:43;;;;;;;9.32;8.43;;;;;;;;;;10343607;28;20749;-78
2022/05/05 20:10:34;;;;;;;10.18;9.02;;;;;;;;;;10360068;28;19909;-79
2022/05/05 20:15:41;;;;;;;9.80;7.82;;;;;;;;;;10348050;28;20121;-80
2022/05/05 20:20:46;;;;;;;10.07;9.07;;;;;;;;;;10370354;28;20053;-79
2022/05/05 20:26:04;;;;;;;11.10;9.00;;;;;;;;;;10380970;28;20114;-81
2022/05/05 20:31:24;;;;;;;10.43;9.38;;;;;;;;;;10368031;28;20022;-82
2022/05/05 20:36:34;;;;;;;11.57;10.38;;;;;;;;;;10374840;28;20048;-79
2022/05/05 20:41:38;;;;;;;12.55;10.30;;;;;;;;;;10361600;28;20046;-76
2022/05/05 20:46:39;;;;;;;11.23;10.07;;;;;;;;;;10368211;28;20038;-77
2022/05/05 20:51:40;;;;;;;10.60;9.50;;;;;;;;;;10371915;28;20049;-77
2022/05/05 20:56:40;;;;;;;10.98;9.77;;;;;;;;;;10371758;28;20281;-76
2022/05/05 21:01:41;;;;;;;12.00;10.10;;;;;;;;;;10366364;28;20496;-75
2022/05/05 21:06:41;;;;;;;10.37;9.27;;;;;;;;;;10377353;28;20042;-79
2022/05/05 21:11:42;;;;;;;11.35;9.60;;;;;;;;;;10367199;28;20057;-78
2022/05/05 21:16:43;;;;;;;12.32;9.38;;;;;;;;;;10346607;28;20042;-77
2022/05/05 21:27:02;;;;;;;12.55;10.73;;;;;;;;;;10380822;28;20288;-76
2022/05/05 21:32:03;;;;;;;12.07;10.85;;;;;;;;;;10382029;28;20042;-77
2022/05/05 21:37:04;;;;;;;13.20;11.38;;;;;;;;;;10372604;28;20078;-75
2022/05/05 21:42:05;;;;;;;11.07;9.90;;;;;;;;;;10362109;28;20508;-75
2022/05/05 21:47:07;;;;;;;12.68;11.05;;;;;;;;;;10362049;28;20049;-75
2022/05/05 21:52:07;;;;;;;11.73;10.32;;;;;;;;;;10359932;28;20045;-76
2022/05/05 21:57:07;;;;;;;11.30;9.63;;;;;;;;;;10356117;28;20052;-76
2022/05/05 22:02:08;;;;;;;13.30;10.10;;;;;;;;;;10340414;28;20054;-77
2022/05/05 22:07:08;;;;;;;14.52;11.88;;;;;;;;;;10341923;28;20100;-77
2022/05/05 22:12:10;;;;;;;13.98;11.40;;;;;;;;;;10360398;28;20073;-77
2022/05/05 22:17:12;;;;;;;13.35;10.77;;;;;;;;;;10345438;28;20140;-76
2022/05/05 22:22:14;;;;;;;11.43;10.00;;;;;;;;;;10377491;28;20070;-74
2022/05/05 22:27:14;;;;;;;12.70;11.00;;;;;;;;;;10341360;28;20054;-76
2022/05/05 22:32:14;;;;;;;12.20;10.87;;;;;;;;;;10361228;28;20061;-76
2022/05/05 22:37:15;;;;;;;10.88;9.77;;;;;;;;;;10368552;28;20651;-75
2022/05/05 22:42:15;;;;;;;12.23;10.73;;;;;;;;;;10374586;28;20057;-76
2022/05/05 22:47:16;;;;;;;11.67;10.50;;;;;;;;;;10353773;28;20109;-76
2022/05/05 22:52:16;;;;;;;11.25;9.38;;;;;;;;;;10354928;28;20320;-76
2022/05/05 22:57:17;;;;;;;13.07;10.50;;;;;;;;;;10361211;28;20058;-75
2022/05/05 23:02:17;;;;;;;11.30;10.07;;;;;;;;;;10372504;28;20141;-76
2022/05/05 23:07:18;;;;;;;10.63;9.17;;;;;;;;;;10372441;28;20046;-75
2022/05/05 23:12:18;;;;;;;11.93;10.80;;;;;;;;;;10353563;28;20156;-76
2022/05/05 23:17:19;;;;;;;10.70;9.60;;;;;;;;;;10380932;28;20429;-75
2022/05/05 23:22:19;;;;;;;10.98;9.90;;;;;;;;;;10380249;28;20693;-75
2022/05/05 23:27:19;;;;;;;16.40;9.93;;;;;;;;;;10349152;28;20126;-76
2022/05/05 23:32:20;;;;;;;9.90;8.70;;;;;;;;;;10354286;28;20050;-76
2022/05/05 23:37:22;;;;;;;10.57;8.93;;;;;;;;;;10370757;28;20054;-76
2022/05/05 23:42:22;;;;;;;10.50;9.40;;;;;;;;;;10360116;28;20312;-76
2022/05/05 23:47:23;;;;;;;8.85;7.57;;;;;;;;;;10357743;28;20058;-76
2022/05/05 23:52:24;;;;;;;9.85;8.48;;;;;;;;;;10365289;28;20064;-75
2022/05/05 23:57:26;;;;;;;9.20;8.30;;;;;;;;;;10364461;28;20085;-75
